Time;durP1;ratioP1;P1;durP2;ratioP2;P2;SDS_P1;SDS_P2;PMS_P1;PMS_P2;Temp;Humidity;BMP_temperature;BMP_pressure;BME280_temperature;BME280_humidity;BME280_pressure;Samples;Min_cycle;Max_cycle;Signal;HPM_P1;HPM_P2
2021/07/05 00:00:13;;;;;;;12.10;10.25;;;;;;;16.99;nan;100232.59;5010917;28;20042;-82
2021/07/05 00:02:40;;;;;;;9.90;8.98;;;;;;;16.99;nan;100234.41;4976695;28;20414;-82
2021/07/05 00:05:09;;;;;;;10.63;9.57;;;;;;;17.00;nan;100236.13;5026938;28;20734;-83
2021/07/05 00:07:36;;;;;;;9.73;8.82;;;;;;;17.02;nan;100239.56;5027586;28;20046;-82
2021/07/05 00:10:05;;;;;;;11.80;9.10;;;;;;;17.04;nan;100237.69;5003429;28;20042;-82
2021/07/05 00:12:32;;;;;;;10.77;9.43;;;;;;;17.08;nan;100241.94;5009855;28;20052;-82
2021/07/05 00:14:59;;;;;;;11.75;9.52;;;;;;;17.14;nan;100233.56;5016076;28;20049;-82
2021/07/05 00:17:25;;;;;;;10.40;9.38;;;;;;;17.09;nan;100239.16;5011487;28;20042;-82
2021/07/05 00:19:53;;;;;;;10.55;9.45;;;;;;;17.14;nan;100237.09;4992117;28;20089;-81
2021/07/05 00:22:19;;;;;;;11.45;10.27;;;;;;;17.18;nan;100237.81;4993495;28;20523;-83
2021/07/05 00:24:46;;;;;;;10.80;9.70;;;;;;;17.23;nan;100232.19;5026685;28;20177;-82
2021/07/05 00:27:13;;;;;;;9.75;8.82;;;;;;;17.17;nan;100238.75;5003897;28;20058;-83
2021/07/05 00:29:39;;;;;;;11.50;9.90;;;;;;;17.30;nan;100234.44;4998176;28;20052;-84
2021/07/05 00:32:06;;;;;;;11.50;9.27;;;;;;;17.23;nan;100238.41;5005849;28;20135;-82
2021/07/05 00:34:33;;;;;;;10.45;9.23;;;;;;;17.33;nan;100230.78;5010397;28;20049;-83
2021/07/05 00:37:00;;;;;;;10.70;9.60;;;;;;;17.30;nan;100233.59;5023614;28;20038;-83
2021/07/05 00:39:26;;;;;;;11.50;9.38;;;;;;;17.38;nan;100223.34;5026504;28;20107;-82
2021/07/05 00:41:53;;;;;;;9.55;8.55;;;;;;;17.24;nan;100216.13;4997135;28;20391;-82
2021/07/05 00:44:20;;;;;;;10.30;8.98;;;;;;;17.26;nan;100216.03;4994371;28;20057;-82
2021/07/05 00:46:46;;;;;;;11.25;9.93;;;;;;;17.24;nan;100213.44;5009591;28;20038;-83
2021/07/05 00:49:13;;;;;;;10.13;9.13;;;;;;;17.17;nan;100218.25;5010662;28;20700;-82
2021/07/05 00:51:40;;;;;;;11.32;9.57;;;;;;;17.19;nan;100212.84;5009556;28;20049;-83
2021/07/05 00:54:07;;;;;;;11.20;8.90;;;;;;;17.20;nan;100201.19;5025268;28;20046;-83
2021/07/05 00:56:34;;;;;;;10.70;9.57;;;;;;;17.09;nan;100207.13;5006716;28;20064;-82
2021/07/05 00:59:01;;;;;;;10.32;8.55;;;;;;;17.12;nan;100203.44;5010037;28;20044;-83
2021/07/05 01:01:28;;;;;;;11.20;10.00;;;;;;;17.21;nan;100194.06;4992401;28;20095;-83
2021/07/05 01:03:55;;;;;;;9.98;8.88;;;;;;;17.11;nan;100199.03;5024351;28;20038;-82
2021/07/05 01:06:21;;;;;;;9.25;8.30;;;;;;;17.05;nan;100204.72;4991070;28;20053;-82
2021/07/05 01:08:48;;;;;;;11.15;9.70;;;;;;;17.08;nan;100205.41;5008656;28;20053;-84
2021/07/05 01:11:17;;;;;;;10.45;9.00;;;;;;;17.09;nan;100199.13;4988490;28;20377;-82
2021/07/05 01:13:44;;;;;;;10.27;9.27;;;;;;;17.00;nan;100199.63;4990456;28;20048;-82
2021/07/05 01:16:10;;;;;;;10.90;9.85;;;;;;;17.02;nan;100194.22;4995938;28;20046;-83
2021/07/05 01:18:37;;;;;;;11.20;10.00;;;;;;;17.00;nan;100196.09;5016113;28;20045;-83
2021/07/05 01:21:04;;;;;;;9.90;8.85;;;;;;;17.03;nan;100195.94;5007555;28;20048;-82
2021/07/05 01:23:31;;;;;;;10.25;9.25;;;;;;;17.03;nan;100182.59;4983270;28;20049;-82
2021/07/05 01:25:58;;;;;;;11.07;9.48;;;;;;;17.03;nan;100193.25;5008720;28;20049;-82
2021/07/05 01:28:25;;;;;;;10.55;9.43;;;;;;;17.00;nan;100190.78;4993594;28;20038;-82
2021/07/05 01:30:52;;;;;;;9.95;8.95;;;;;;;17.00;nan;100193.44;5009442;28;20044;-84
2021/07/05 01:33:18;;;;;;;10.88;9.77;;;;;;;17.06;nan;100198.41;5010640;28;20062;-82
2021/07/05 01:35:45;;;;;;;10.70;9.65;;;;;;;17.02;nan;100194.22;5009515;28;20046;-82
2021/07/05 01:38:22;;;;;;;10.88;9.73;;;;;;;17.03;nan;100190.59;5013705;28;20042;-83
2021/07/05 01:40:58;;;;;;;11.15;9.80;;;;;;;17.05;nan;100184.22;5003617;28;20431;-83
2021/07/05 01:43:25;;;;;;;10.43;9.35;;;;;;;17.09;nan;100188.44;4974737;28;20053;-84
2021/07/05 01:45:52;;;;;;;10.05;8.95;;;;;;;17.09;nan;100184.94;5000232;28;20132;-83
2021/07/05 01:48:20;;;;;;;10.57;8.85;;;;;;;17.08;nan;100180.53;4992024;28;20200;-82
2021/07/05 01:50:47;;;;;;;10.63;9.52;;;;;;;17.09;nan;100182.25;5010038;28;20129;-83
2021/07/05 01:53:14;;;;;;;10.48;9.23;;;;;;;17.00;nan;100177.44;5016015;28;20045;-83
2021/07/05 01:55:41;;;;;;;10.25;9.20;;;;;;;17.02;nan;100172.84;5024905;28;20134;-82
2021/07/05 01:58:08;;;;;;;10.88;9.45;;;;;;;17.02;nan;100170.19;5005942;28;20070;-83
2021/07/05 02:00:37;;;;;;;10.38;9.30;;;;;;;16.99;nan;100162.38;5011022;28;20406;-82
2021/07/05 02:03:04;;;;;;;10.77;9.45;;;;;;;17.05;nan;100162.88;5000223;28;20042;-82
2021/07/05 02:05:31;;;;;;;10.13;9.15;;;;;;;17.01;nan;100161.31;4995615;28;20050;-83
2021/07/05 02:07:58;;;;;;;10.98;9.38;;;;;;;17.03;nan;100159.44;5013476;28;20045;-82
2021/07/05 02:10:28;;;;;;;9.95;9.05;;;;;;;17.06;nan;100167.25;4995552;28;20049;-84
2021/07/05 02:12:56;;;;;;;13.02;10.27;;;;;;;17.03;nan;100161.22;5008882;28;20049;-83
2021/07/05 02:15:24;;;;;;;11.30;10.10;;;;;;;16.99;nan;100167.69;5026861;28;20050;-84
2021/07/05 02:17:51;;;;;;;10.38;9.38;;;;;;;17.04;nan;100157.63;5029377;28;20089;-83
2021/07/05 02:20:23;;;;;;;10.63;9.18;;;;;;;17.00;nan;100158.75;5027690;28;20064;-85
2021/07/05 02:22:51;;;;;;;9.88;8.88;;;;;;;16.95;nan;100161.66;4996498;28;20266;-82
2021/07/05 02:25:20;;;;;;;10.93;9.82;;;;;;;16.98;nan;100160.63;4995930;28;20555;-83
2021/07/05 02:27:47;;;;;;;10.00;9.00;;;;;;;16.91;nan;100161.91;5013113;28;20037;-82
2021/07/05 02:30:17;;;;;;;10.63;8.85;;;;;;;16.89;nan;100152.16;5011975;28;20108;-83
2021/07/05 02:32:45;;;;;;;10.00;9.00;;;;;;;16.84;nan;100166.72;5011119;28;20053;-82
2021/07/05 02:35:14;;;;;;;10.25;9.10;;;;;;;16.81;nan;100158.88;4995498;28;20048;-83
2021/07/05 02:37:42;;;;;;;10.85;9.75;;;;;;;16.78;nan;100159.91;5021910;28;20418;-82
2021/07/05 02:40:11;;;;;;;10.90;9.80;;;;;;;16.78;nan;100165.25;5009052;28;20530;-86
2021/07/05 02:42:39;;;;;;;10.35;9.38;;;;;;;16.83;nan;100168.53;5017818;28;20046;-85
2021/07/05 02:45:11;;;;;;;11.55;10.02;;;;;;;16.80;nan;100174.00;5026914;28;20112;-85
2021/07/05 02:47:37;;;;;;;10.75;9.55;;;;;;;16.78;nan;100170.56;5010556;28;20453;-84
2021/07/05 02:50:07;;;;;;;11.50;10.35;;;;;;;16.77;nan;100163.50;5029189;28;20542;-85
2021/07/05 02:52:34;;;;;;;10.43;9.38;;;;;;;16.84;nan;100154.25;5029129;28;20074;-85
2021/07/05 02:55:01;;;;;;;9.98;8.98;;;;;;;16.81;nan;100164.19;4997758;28;20054;-84
2021/07/05 02:57:30;;;;;;;11.45;10.25;;;;;;;16.77;nan;100163.50;5012581;28;20037;-85
2021/07/05 03:00:12;;;;;;;10.57;9.48;;;;;;;16.79;nan;100166.94;5014099;28;20416;-86
2021/07/05 03:02:39;;;;;;;11.27;9.75;;;;;;;16.80;nan;100166.00;5028972;28;20037;-85
2021/07/05 03:05:09;;;;;;;11.07;9.95;;;;;;;16.81;nan;100172.19;5025927;28;20520;-86
2021/07/05 03:07:35;;;;;;;11.73;10.13;;;;;;;16.76;nan;100175.13;5025699;28;20042;-84
2021/07/05 03:10:07;;;;;;;11.07;9.88;;;;;;;16.75;nan;100168.06;5026611;28;20060;-87
2021/07/05 03:12:36;;;;;;;11.10;9.95;;;;;;;16.79;nan;100176.75;5009519;28;20046;-85
2021/07/05 03:15:06;;;;;;;11.32;10.13;;;;;;;16.77;nan;100178.66;5010573;28;20046;-85
2021/07/05 03:17:33;;;;;;;11.73;10.55;;;;;;;16.79;nan;100171.44;4996101;28;20046;-85
2021/07/05 03:19:59;;;;;;;11.07;10.00;;;;;;;16.80;nan;100175.81;5013374;28;20046;-85
2021/07/05 03:22:26;;;;;;;11.63;10.60;;;;;;;16.81;nan;100172.19;5012851;28;20045;-85
2021/07/05 03:24:53;;;;;;;11.90;10.63;;;;;;;16.81;nan;100170.41;4997824;28;20179;-85
2021/07/05 03:27:20;;;;;;;11.50;10.30;;;;;;;16.81;nan;100170.41;5029350;28;20054;-85
2021/07/05 03:29:46;;;;;;;10.98;9.93;;;;;;;16.86;nan;100172.81;5029954;28;20050;-85
2021/07/05 03:32:13;;;;;;;11.88;10.68;;;;;;;16.89;nan;100165.50;5029103;28;20542;-85
2021/07/05 03:34:40;;;;;;;11.18;10.10;;;;;;;16.89;nan;100165.50;5013453;28;20041;-85
2021/07/05 03:37:06;;;;;;;10.32;9.27;;;;;;;16.97;nan;100177.56;4996240;28;20038;-85
2021/07/05 03:39:33;;;;;;;11.75;10.60;;;;;;;16.97;nan;100177.56;5013451;28;20046;-85
2021/07/05 03:42:00;;;;;;;11.13;10.13;;;;;;;16.98;nan;100176.63;4980865;28;20042;-85
2021/07/05 03:44:27;;;;;;;11.27;10.18;;;;;;;17.02;nan;100178.19;4981398;28;20077;-86
2021/07/05 03:46:53;;;;;;;12.32;11.13;;;;;;;17.02;nan;100181.72;5028970;28;20042;-86
2021/07/05 03:49:20;;;;;;;11.20;10.10;;;;;;;17.10;nan;100179.50;5013469;28;20090;-85
2021/07/05 03:51:48;;;;;;;11.38;10.18;;;;;;;17.15;nan;100180.13;5028592;28;20038;-85
2021/07/05 03:54:15;;;;;;;11.60;10.13;;;;;;;17.19;nan;100179.94;5028945;28;20045;-85
2021/07/05 03:56:42;;;;;;;11.63;10.48;;;;;;;17.25;nan;100180.47;5027622;28;20069;-86
2021/07/05 03:59:08;;;;;;;11.43;10.23;;;;;;;17.24;nan;100184.09;5012183;28;20049;-86
2021/07/05 04:01:35;;;;;;;12.25;10.98;;;;;;;17.30;nan;100189.06;5027445;28;20042;-85
2021/07/05 04:04:02;;;;;;;11.55;10.45;;;;;;;17.37;nan;100187.78;5029212;28;20140;-86
2021/07/05 04:06:29;;;;;;;11.15;10.05;;;;;;;17.44;nan;100189.16;5012206;28;20108;-85
2021/07/05 04:08:57;;;;;;;12.30;10.98;;;;;;;17.49;nan;100182.69;5009724;28;20108;-85
2021/07/05 04:11:23;;;;;;;11.55;10.27;;;;;;;17.59;nan;100190.09;4976001;28;20046;-86
2021/07/05 04:13:50;;;;;;;12.35;11.05;;;;;;;17.61;nan;100182.00;4975721;28;20431;-86
2021/07/05 04:16:17;;;;;;;10.75;9.65;;;;;;;17.62;nan;100183.72;4989419;28;20052;-86
2021/07/05 04:18:43;;;;;;;12.15;10.95;;;;;;;17.70;nan;100186.84;5012968;28;20038;-86
2021/07/05 04:21:10;;;;;;;11.98;10.77;;;;;;;17.78;nan;100186.41;4995779;28;20060;-87
2021/07/05 04:23:42;;;;;;;11.77;10.57;;;;;;;17.80;nan;100181.84;4997051;28;20192;-87
2021/07/05 04:26:08;;;;;;;11.88;10.68;;;;;;;17.88;nan;100187.59;4995365;28;20126;-85
2021/07/05 04:28:35;;;;;;;11.13;10.02;;;;;;;17.99;nan;100185.16;4996030;28;20044;-86
2021/07/05 04:31:02;;;;;;;11.18;10.07;;;;;;;18.09;nan;100190.84;5011346;28;20414;-85
2021/07/05 04:33:29;;;;;;;11.30;10.18;;;;;;;18.16;nan;100190.38;5012499;28;20065;-86
2021/07/05 04:35:55;;;;;;;11.07;9.90;;;;;;;18.25;nan;100183.63;4995372;28;20042;-85
2021/07/05 04:38:22;;;;;;;12.45;10.15;;;;;;;18.30;nan;100181.53;5012080;28;20046;-85
2021/07/05 04:40:49;;;;;;;11.73;10.63;;;;;;;18.35;nan;100183.94;4990548;28;20047;-85
2021/07/05 04:43:16;;;;;;;11.02;9.93;;;;;;;18.47;nan;100181.38;5009126;28;20050;-87
2021/07/05 04:45:45;;;;;;;11.35;10.25;;;;;;;18.51;nan;100185.59;5010551;28;20547;-86
2021/07/05 04:48:12;;;;;;;11.45;10.23;;;;;;;18.67;nan;100185.56;5011883;28;20045;-85
2021/07/05 04:50:39;;;;;;;12.38;11.18;;;;;;;18.78;nan;100184.88;4994035;28;20491;-86
2021/07/05 04:53:06;;;;;;;11.70;10.50;;;;;;;18.84;nan;100188.03;4995500;28;20045;-85
2021/07/05 04:55:33;;;;;;;12.75;11.18;;;;;;;18.91;nan;100180.47;4994594;28;20077;-85
2021/07/05 04:58:00;;;;;;;11.68;10.52;;;;;;;18.99;nan;100182.66;4979971;28;20060;-85
2021/07/05 05:00:33;;;;;;;11.23;10.10;;;;;;;19.05;nan;100174.25;4994333;28;20087;-86
2021/07/05 05:03:04;;;;;;;11.25;9.95;;;;;;;19.08;nan;100177.59;4994949;28;20091;-84
2021/07/05 05:05:33;;;;;;;11.40;10.10;;;;;;;19.13;nan;100178.16;5009194;28;20046;-86
2021/07/05 05:08:02;;;;;;;10.90;9.70;;;;;;;19.23;nan;100181.13;5029179;28;20042;-86
2021/07/05 05:10:29;;;;;;;11.32;10.23;;;;;;;19.29;nan;100188.75;5027447;28;20053;-85
2021/07/05 05:12:55;;;;;;;11.38;10.27;;;;;;;19.35;nan;100184.84;5012184;28;20111;-85
2021/07/05 05:15:22;;;;;;;11.27;10.07;;;;;;;19.37;nan;100185.59;5011139;28;20135;-86
2021/07/05 05:17:49;;;;;;;10.93;9.93;;;;;;;19.39;nan;100181.00;4995660;28;20050;-86
2021/07/05 05:20:17;;;;;;;10.25;9.30;;;;;;;19.41;nan;100177.25;5027520;28;20049;-88
2021/07/05 05:22:45;;;;;;;12.52;10.65;;;;;;;19.53;nan;100170.25;5012442;28;20123;-87
2021/07/05 05:25:13;;;;;;;12.43;11.05;;;;;;;19.39;nan;100172.97;5012443;28;20038;-88
2021/07/05 05:27:40;;;;;;;11.90;10.68;;;;;;;19.48;nan;100172.34;4996209;28;20044;-86
2021/07/05 05:30:08;;;;;;;11.90;10.65;;;;;;;19.59;nan;100172.56;5012170;28;20042;-87
2021/07/05 05:32:44;;;;;;;11.93;10.65;;;;;;;19.68;nan;100174.63;5012511;28;20124;-86
2021/07/05 05:35:12;;;;;;;12.90;11.70;;;;;;;19.71;nan;100178.94;5028020;28;20073;-87
2021/07/05 05:37:39;;;;;;;11.68;10.57;;;;;;;19.81;nan;100173.81;4995915;28;20091;-87
2021/07/05 05:40:06;;;;;;;12.48;11.27;;;;;;;20.03;nan;100162.53;4996093;28;20034;-87
2021/07/05 05:42:32;;;;;;;13.00;11.30;;;;;;;20.11;nan;100162.88;4995714;28;20052;-86
2021/07/05 05:44:59;;;;;;;11.25;10.18;;;;;;;20.24;nan;100156.53;4996323;28;20042;-87
2021/07/05 05:47:26;;;;;;;11.75;10.55;;;;;;;20.48;nan;100150.50;4992553;28;20042;-86
2021/07/05 05:49:53;;;;;;;11.00;9.90;;;;;;;21.32;nan;100164.16;4993817;28;20138;-88
2021/07/05 05:52:19;;;;;;;9.95;8.95;;;;;;;22.91;nan;100160.13;5008798;28;20050;-86
2021/07/05 05:54:46;;;;;;;11.15;10.15;;;;;;;24.15;nan;100163.44;4993247;28;20103;-84
2021/07/05 05:57:26;;;;;;;10.27;9.35;;;;;;;25.02;nan;100160.41;4988076;28;20049;-83
2021/07/05 05:59:55;;;;;;;10.00;9.10;;;;;;;25.44;nan;100166.56;5006064;28;20137;-83
2021/07/05 06:02:24;;;;;;;10.35;9.32;;;;;;;24.78;nan;100161.56;4994284;28;20108;-84
2021/07/05 06:04:50;;;;;;;10.13;8.98;;;;;;;24.08;nan;100163.09;5009731;28;20046;-84
2021/07/05 06:07:17;;;;;;;10.80;9.80;;;;;;;23.57;nan;100162.88;5016780;28;20038;-85
2021/07/05 06:09:44;;;;;;;10.60;9.68;;;;;;;23.11;nan;100165.75;5010147;28;20411;-82
2021/07/05 06:12:11;;;;;;;11.25;10.23;;;;;;;22.98;nan;100166.75;5010135;28;20052;-82
2021/07/05 06:14:38;;;;;;;10.93;10.02;;;;;;;23.03;nan;100161.81;5028357;28;20084;-81
2021/07/05 06:17:08;;;;;;;11.52;10.40;;;;;;;23.29;nan;100162.44;4993371;28;20042;-81
2021/07/05 06:19:35;;;;;;;10.95;9.95;;;;;;;23.39;nan;100167.94;5032258;28;20057;-81
2021/07/05 06:22:02;;;;;;;11.35;10.27;;;;;;;23.65;nan;100171.22;5009233;28;20038;-82
2021/07/05 06:24:29;;;;;;;11.27;10.23;;;;;;;23.90;nan;100172.72;5023210;28;20037;-80
2021/07/05 06:26:56;;;;;;;10.63;9.63;;;;;;;23.99;nan;100168.41;4979585;28;20045;-83
2021/07/05 06:29:22;;;;;;;11.80;10.68;;;;;;;23.90;nan;100174.56;5013357;28;20061;-81
2021/07/05 06:31:49;;;;;;;12.38;10.40;;;;;;;23.93;nan;100167.06;5011774;28;20038;-83
2021/07/05 06:34:16;;;;;;;11.65;10.65;;;;;;;24.25;nan;100160.78;4981347;28;20054;-84
2021/07/05 06:36:43;;;;;;;10.85;9.82;;;;;;;24.34;nan;100160.88;4995734;28;20045;-81
2021/07/05 06:39:09;;;;;;;12.45;11.30;;;;;;;23.96;nan;100160.53;5029699;28;20391;-84
2021/07/05 06:41:37;;;;;;;11.85;10.75;;;;;;;23.81;nan;100165.41;4989813;28;20073;-85
2021/07/05 06:44:04;;;;;;;12.57;11.38;;;;;;;23.50;nan;100173.31;4986428;28;20037;-84
2021/07/05 06:46:31;;;;;;;11.65;10.55;;;;;;;23.84;nan;100165.16;4990995;28;20053;-83
2021/07/05 06:48:57;;;;;;;10.98;9.98;;;;;;;23.60;nan;100162.63;5012090;28;20648;-81
2021/07/05 06:51:24;;;;;;;12.00;10.77;;;;;;;23.90;nan;100159.25;4998460;28;20052;-83
2021/07/05 06:53:51;;;;;;;11.38;9.70;;;;;;;23.52;nan;100155.16;5005571;28;20085;-82
2021/07/05 06:56:18;;;;;;;11.98;10.77;;;;;;;23.76;nan;100162.22;5007640;28;20503;-79
2021/07/05 06:58:44;;;;;;;11.88;10.68;;;;;;;24.07;nan;100166.78;5012401;28;20050;-82
2021/07/05 07:01:11;;;;;;;11.77;10.70;;;;;;;24.35;nan;100161.75;5007941;28;20513;-82
2021/07/05 07:03:38;;;;;;;11.68;10.68;;;;;;;24.24;nan;100159.94;5004880;28;20046;-81
2021/07/05 07:06:05;;;;;;;11.77;10.73;;;;;;;24.13;nan;100162.69;5011374;28;20077;-82
2021/07/05 07:08:31;;;;;;;11.32;10.20;;;;;;;24.22;nan;100158.38;5009707;28;20066;-81
2021/07/05 07:10:58;;;;;;;11.45;9.90;;;;;;;24.47;nan;100152.59;5021373;28;20176;-83
2021/07/05 07:13:25;;;;;;;13.05;10.32;;;;;;;24.54;nan;100152.91;4995765;28;20042;-83
2021/07/05 07:15:55;;;;;;;10.93;9.93;;;;;;;24.98;nan;100143.63;5009033;28;20115;-82
2021/07/05 07:21:05;;;;;;;10.82;9.82;;;;;;;25.28;nan;100150.84;5027650;28;20042;-84
2021/07/05 07:23:32;;;;;;;10.95;9.77;;;;;;;25.36;nan;100152.88;5019438;28;20046;-82
2021/07/05 07:25:59;;;;;;;10.70;9.80;;;;;;;25.52;nan;100151.34;5004617;28;20062;-82
2021/07/05 07:28:25;;;;;;;11.55;10.48;;;;;;;25.64;nan;100146.66;5028439;28;20041;-82
2021/07/05 07:30:52;;;;;;;11.35;10.38;;;;;;;25.63;nan;100150.34;5012098;28;20099;-81
2021/07/05 07:33:19;;;;;;;12.10;10.90;;;;;;;25.86;nan;100159.09;5017741;28;20507;-83
2021/07/05 07:35:47;;;;;;;13.07;11.93;;;;;;;25.70;nan;100153.34;5027930;28;20037;-80
2021/07/05 07:38:14;;;;;;;13.10;11.90;;;;;;;25.68;nan;100158.06;5017622;28;20120;-82
2021/07/05 07:40:41;;;;;;;12.10;11.10;;;;;;;26.05;nan;100158.25;4994466;28;20052;-81
2021/07/05 07:43:08;;;;;;;12.68;11.50;;;;;;;26.29;nan;100166.78;4996665;28;20053;-80
2021/07/05 07:45:35;;;;;;;12.50;11.40;;;;;;;25.97;nan;100160.81;5022404;28;20115;-80
2021/07/05 07:48:02;;;;;;;13.80;12.43;;;;;;;26.28;nan;100165.06;5015687;28;20072;-81
2021/07/05 07:50:30;;;;;;;14.93;13.45;;;;;;;26.40;nan;100168.50;5024193;28;20053;-83
2021/07/05 07:52:57;;;;;;;14.15;12.85;;;;;;;26.50;nan;100176.63;4997148;28;20060;-82
2021/07/05 07:55:24;;;;;;;13.50;12.30;;;;;;;26.48;nan;100175.91;5011824;28;20038;-83
2021/07/05 07:57:51;;;;;;;15.15;13.75;;;;;;;26.07;nan;100173.38;5013166;28;20384;-80
2021/07/05 08:00:18;;;;;;;14.02;12.73;;;;;;;26.30;nan;100167.63;5024920;28;20048;-81
2021/07/05 08:02:45;;;;;;;14.10;12.70;;;;;;;26.24;nan;100169.09;4996042;28;20311;-81
2021/07/05 08:05:13;;;;;;;14.55;13.15;;;;;;;26.16;nan;100177.06;5000506;28;20030;-81
2021/07/05 08:07:43;;;;;;;15.88;14.25;;;;;;;25.93;nan;100168.38;5010825;28;20053;-83
2021/07/05 08:10:12;;;;;;;14.77;13.32;;;;;;;25.96;nan;100180.75;5022150;28;20038;-82
2021/07/05 08:12:40;;;;;;;13.65;12.18;;;;;;;25.79;nan;100171.47;4994517;28;20085;-82
2021/07/05 08:15:08;;;;;;;14.55;13.13;;;;;;;25.65;nan;100175.44;5028183;28;20034;-81
2021/07/05 08:17:35;;;;;;;14.35;13.07;;;;;;;25.87;nan;100181.59;5027816;28;20042;-83
2021/07/05 08:20:04;;;;;;;14.35;13.07;;;;;;;25.99;nan;100169.66;5010382;28;20437;-82
2021/07/05 08:22:30;;;;;;;18.08;13.40;;;;;;;25.96;nan;100167.22;5012044;28;20519;-82
2021/07/05 08:24:57;;;;;;;15.23;13.70;;;;;;;25.75;nan;100173.63;5012565;28;20037;-81
2021/07/05 08:27:24;;;;;;;15.73;14.18;;;;;;;25.54;nan;100176.38;5010569;28;20455;-82
2021/07/05 08:29:51;;;;;;;13.48;12.27;;;;;;;25.72;nan;100163.06;4996809;28;20563;-83
2021/07/05 08:32:17;;;;;;;14.38;12.95;;;;;;;25.74;nan;100171.06;5012897;28;20042;-80
2021/07/05 08:34:44;;;;;;;15.10;13.70;;;;;;;25.71;nan;100177.59;4995821;28;20052;-82
2021/07/05 08:37:11;;;;;;;15.73;14.30;;;;;;;25.51;nan;100183.94;5015739;28;20134;-81
2021/07/05 08:39:38;;;;;;;14.05;12.77;;;;;;;25.59;nan;100175.13;5002993;28;20042;-81
2021/07/05 08:42:05;;;;;;;15.05;13.55;;;;;;;25.58;nan;100170.72;4994631;28;20073;-81
2021/07/05 08:44:32;;;;;;;20.48;13.93;;;;;;;25.49;nan;100173.25;5028517;28;20041;-84
2021/07/05 08:46:59;;;;;;;12.73;11.52;;;;;;;25.43;nan;100172.97;5005421;28;20033;-82
2021/07/05 08:49:26;;;;;;;13.80;12.60;;;;;;;25.62;nan;100175.69;4995419;28;20053;-81
2021/07/05 08:51:56;;;;;;;13.57;12.38;;;;;;;25.78;nan;100176.03;5011851;28;20125;-83
2021/07/05 08:54:22;;;;;;;12.85;11.65;;;;;;;26.03;nan;100174.63;5012077;28;20064;-81
2021/07/05 08:56:49;;;;;;;13.07;11.77;;;;;;;26.20;nan;100177.63;5009768;28;20419;-84
2021/07/05 08:59:17;;;;;;;12.55;11.38;;;;;;;26.24;nan;100176.34;5010450;28;20038;-82
2021/07/05 09:01:44;;;;;;;10.82;9.85;;;;;;;26.36;nan;100181.47;4989458;28;20179;-83
2021/07/05 09:04:13;;;;;;;10.45;9.45;;;;;;;26.16;nan;100173.50;5012190;28;20073;-83
2021/07/05 09:07:02;;;;;;;11.05;10.02;;;;;;;26.08;nan;100176.94;5025117;28;20044;-84
2021/07/05 09:09:31;;;;;;;11.13;10.10;;;;;;;26.08;nan;100174.22;5012643;28;20393;-83
2021/07/05 09:12:04;;;;;;;12.18;10.93;;;;;;;25.99;nan;100181.34;4993859;28;20033;-84
2021/07/05 09:14:31;;;;;;;9.43;8.45;;;;;;;25.85;nan;100183.59;5012977;28;20041;-82
2021/07/05 09:16:58;;;;;;;9.15;8.23;;;;;;;25.73;nan;100188.31;4987704;28;20038;-83
2021/07/05 09:19:32;;;;;;;9.63;8.73;;;;;;;25.56;nan;100195.22;5027549;28;20046;-82
2021/07/05 09:22:00;;;;;;;;;;;;;;;25.39;nan;100195.84;5011296;28;20069;-84
2021/07/05 09:24:37;;;;;;;32.58;10.80;;;;;;;25.20;nan;100189.38;4996941;28;19977;-85
2021/07/05 09:27:04;;;;;;;37.28;10.93;;;;;;;25.14;nan;100195.38;5010291;28;20116;-83
2021/07/05 09:29:32;;;;;;;8.63;7.80;;;;;;;24.96;nan;100192.38;5026443;28;20049;-83
2021/07/05 09:32:01;;;;;;;8.63;7.75;;;;;;;24.83;nan;100196.31;5009669;28;20128;-83
2021/07/05 09:34:33;;;;;;;7.57;6.93;;;;;;;24.47;nan;100195.81;5003576;28;20193;-83
2021/07/05 09:37:22;;;;;;;7.60;6.97;;;;;;;24.38;nan;100201.97;5024297;28;20049;-83
2021/07/05 09:40:00;;;;;;;7.22;6.63;;;;;;;24.36;nan;100204.81;4977118;28;20176;-83
2021/07/05 09:42:33;;;;;;;7.85;7.15;;;;;;;24.23;nan;100209.53;5009314;28;20046;-84
2021/07/05 09:45:03;;;;;;;8.98;6.95;;;;;;;24.22;nan;100204.25;5009999;28;20046;-84
2021/07/05 09:47:30;;;;;;;7.18;6.47;;;;;;;24.14;nan;100210.31;5002179;28;20078;-82
2021/07/05 09:49:57;;;;;;;7.18;6.47;;;;;;;24.04;nan;100207.50;5009556;28;20095;-83
2021/07/05 09:52:28;;;;;;;7.47;6.15;;;;;;;24.01;nan;100209.59;5008805;28;20578;-81
2021/07/05 09:54:59;;;;;;;6.95;6.25;;;;;;;24.05;nan;100216.47;5023193;28;20053;-83
2021/07/05 09:57:41;;;;;;;12.63;7.97;;;;;;;23.95;nan;100215.50;5029604;28;20041;-83
2021/07/05 10:00:08;;;;;;;8.35;7.55;;;;;;;23.90;nan;100224.00;4993934;28;20034;-82
2021/07/05 10:02:36;;;;;;;6.88;6.28;;;;;;;23.86;nan;100225.22;5024473;28;20089;-82
2021/07/05 10:05:17;;;;;;;7.13;6.32;;;;;;;23.58;nan;100227.47;4997507;28;20042;-83
2021/07/05 10:08:00;;;;;;;8.05;6.28;;;;;;;23.50;nan;100234.47;5030568;28;20054;-83
2021/07/05 10:10:27;;;;;;;6.78;6.07;;;;;;;23.36;nan;100243.66;5027861;28;20377;-83
2021/07/05 10:13:02;;;;;;;8.65;6.75;;;;;;;23.25;nan;100243.66;5008308;28;20045;-83
2021/07/05 10:15:30;;;;;;;6.82;5.90;;;;;;;22.98;nan;100252.97;4998889;28;20049;-84
2021/07/05 10:17:57;;;;;;;7.45;6.45;;;;;;;22.94;nan;100254.16;5011408;28;20042;-82
2021/07/05 10:20:27;;;;;;;6.40;5.80;;;;;;;22.85;nan;100256.72;5010146;28;20637;-84
2021/07/05 10:22:56;;;;;;;7.68;6.47;;;;;;;22.86;nan;100253.91;4995783;28;20048;-84
2021/07/05 10:25:25;;;;;;;6.60;6.00;;;;;;;22.82;nan;100257.78;5026364;28;20053;-81
2021/07/05 10:27:52;;;;;;;6.60;6.00;;;;;;;22.78;nan;100253.59;5029291;28;20462;-83
2021/07/05 10:30:20;;;;;;;8.32;6.47;;;;;;;22.75;nan;100259.25;5009422;28;20041;-81
2021/07/05 10:32:48;;;;;;;7.75;6.70;;;;;;;22.70;nan;100262.31;5009562;28;20038;-83
2021/07/05 10:35:20;;;;;;;6.43;5.53;;;;;;;22.64;nan;100261.91;5026740;28;20060;-81
2021/07/05 10:37:55;;;;;;;5.93;5.43;;;;;;;22.58;nan;100265.06;5014009;28;20050;-83
2021/07/05 10:40:26;;;;;;;6.15;5.55;;;;;;;22.41;nan;100260.97;5011419;28;20052;-81
2021/07/05 10:42:55;;;;;;;7.00;6.30;;;;;;;22.42;nan;100263.53;5012226;28;20056;-82
2021/07/05 10:45:40;;;;;;;6.10;5.55;;;;;;;22.30;nan;100261.78;4994631;28;20076;-81
2021/07/05 10:48:08;;;;;;;6.35;5.40;;;;;;;22.27;nan;100262.00;5025011;28;20408;-85
2021/07/05 10:50:47;;;;;;;6.00;5.40;;;;;;;22.06;nan;100267.16;4996203;28;20049;-85
2021/07/05 10:53:37;;;;;;;5.90;5.30;;;;;;;21.89;nan;100268.41;5025573;28;20038;-82
2021/07/05 10:56:23;;;;;;;6.20;5.18;;;;;;;21.85;nan;100274.09;5014605;28;20057;-83
2021/07/05 10:58:50;;;;;;;5.35;4.85;;;;;;;21.79;nan;100272.75;5023497;28;20113;-82
2021/07/05 11:01:35;;;;;;;5.90;5.30;;;;;;;21.65;nan;100270.19;5013299;28;20045;-82
2021/07/05 11:04:21;;;;;;;7.25;5.57;;;;;;;21.64;nan;100271.16;5014286;28;20132;-83
2021/07/05 11:06:49;;;;;;;6.45;5.43;;;;;;;21.59;nan;100257.19;4997265;28;20049;-83
2021/07/05 11:09:26;;;;;;;7.68;6.05;;;;;;;21.61;nan;100266.03;5014273;28;20038;-84
2021/07/05 11:11:58;;;;;;;8.23;6.68;;;;;;;21.55;nan;100263.78;5029053;28;20062;-82
2021/07/05 11:14:24;;;;;;;6.35;5.75;;;;;;;21.49;nan;100262.38;5014897;28;20050;-83
2021/07/05 11:17:08;;;;;;;6.38;5.50;;;;;;;21.38;nan;100264.13;5006559;28;20037;-83
2021/07/05 11:19:51;;;;;;;7.95;5.50;;;;;;;21.30;nan;100260.16;5029572;28;20046;-83
2021/07/05 11:22:27;;;;;;;6.95;5.93;;;;;;;21.34;nan;100256.25;4995499;28;20038;-84
2021/07/05 11:25:00;;;;;;;6.28;5.68;;;;;;;21.37;nan;100262.41;5012220;28;20049;-83
2021/07/05 11:27:47;;;;;;;6.82;6.10;;;;;;;21.46;nan;100259.91;5010942;28;20042;-83
2021/07/05 11:30:18;;;;;;;7.10;6.20;;;;;;;21.38;nan;100267.66;5012548;28;20109;-82
2021/07/05 11:32:48;;;;;;;6.05;5.45;;;;;;;21.40;nan;100257.66;5022410;28;20573;-83
2021/07/05 11:35:31;;;;;;;7.50;6.63;;;;;;;21.38;nan;100261.44;5010126;28;20507;-82
2021/07/05 11:38:32;;;;;;;7.95;6.93;;;;;;;21.24;nan;100260.56;5007137;28;20046;-83
2021/07/05 11:41:11;;;;;;;7.53;6.18;;;;;;;21.16;nan;100262.91;4983007;28;20057;-83